createdAt,value
2022-08-27T00:02:09.242Z,82.40
2022-08-27T00:04:42.575Z,82.30
2022-08-27T00:07:24.266Z,82.30
2022-08-27T00:09:51.538Z,82.40
2022-08-27T00:12:25.285Z,82.60
2022-08-27T00:14:52.498Z,82.60
2022-08-27T00:17:26.282Z,82.50
2022-08-27T00:20:00.557Z,82.70
2022-08-27T00:22:35.800Z,82.40
2022-08-27T00:25:12.706Z,82.20
2022-08-27T00:27:47.447Z,82.30
2022-08-27T00:30:16.878Z,82.40
2022-08-27T00:32:44.406Z,82.60
2022-08-27T00:35:18.329Z,82.60
2022-08-27T00:37:52.361Z,82.60
2022-08-27T00:40:21.335Z,82.40
2022-08-27T00:42:55.263Z,82.40
2022-08-27T00:45:23.425Z,82.60
2022-08-27T00:48:01.348Z,82.40
2022-08-27T00:50:42.407Z,82.30
2022-08-27T00:53:22.599Z,82.30
2022-08-27T00:56:20.930Z,82.40
2022-08-27T01:04:32.791Z,82.50
2022-08-27T01:07:13.557Z,82.50
2022-08-27T01:09:42.462Z,82.40
2022-08-27T01:12:17.518Z,82.40
2022-08-27T01:14:46.681Z,82.40
2022-08-27T01:17:22.332Z,82.60
2022-08-27T01:20:07.631Z,82.70
2022-08-27T01:22:40.848Z,82.70
2022-08-27T01:25:20.472Z,82.60
2022-08-27T01:27:56.451Z,82.40
2022-08-27T01:30:30.516Z,82.30
2022-08-27T01:32:58.108Z,82.40
2022-08-27T01:35:32.312Z,82.40
2022-08-27T01:38:05.542Z,82.40
2022-08-27T01:40:44.513Z,82.40
2022-08-27T01:43:12.461Z,82.40
2022-08-27T01:45:47.288Z,82.30
2022-08-27T01:48:15.492Z,82.40
2022-08-27T01:50:50.876Z,82.60
2022-08-27T01:53:21.061Z,82.60
2022-08-27T01:55:56.518Z,82.70
2022-08-27T01:58:26.056Z,82.80
2022-08-27T02:00:56.225Z,82.60
2022-08-27T02:03:31.631Z,82.60
2022-08-27T02:06:06.252Z,82.50
2022-08-27T02:08:47.507Z,82.60
2022-08-27T02:11:14.651Z,82.40
2022-08-27T02:13:48.556Z,82.40
2022-08-27T02:16:15.730Z,82.30
2022-08-27T02:18:49.542Z,82.20
2022-08-27T02:21:18.646Z,82.10
2022-08-27T02:23:45.717Z,82.10
2022-08-27T02:26:19.687Z,82.20
2022-08-27T02:28:47.004Z,82.40
2022-08-27T02:31:21.518Z,82.20
2022-08-27T02:33:49.348Z,82.20
2022-08-27T02:36:23.627Z,82.20
2022-08-27T02:38:52.011Z,82.20
2022-08-27T02:41:27.387Z,82.20
2022-08-27T02:43:54.531Z,82.30
2022-08-27T02:46:29.114Z,82.30
2022-08-27T02:48:56.561Z,82.30
2022-08-27T02:51:30.906Z,82.20
2022-08-27T02:53:58.157Z,82.40
2022-08-27T02:56:33.300Z,82.30
2022-08-27T02:59:02.546Z,82.10
2022-08-27T03:01:36.589Z,81.90
2022-08-27T03:04:05.902Z,82.10
2022-08-27T03:06:46.748Z,82.10
2022-08-27T03:09:21.021Z,82.10
2022-08-27T03:11:55.527Z,82.00
2022-08-27T03:14:22.713Z,81.90
2022-08-27T03:16:56.451Z,81.90
2022-08-27T03:19:24.309Z,81.90
2022-08-27T03:21:58.296Z,81.90
2022-08-27T03:24:32.637Z,81.90
2022-08-27T03:27:06.882Z,81.90
2022-08-27T03:29:35.434Z,81.70
2022-08-27T03:32:03.306Z,81.70
2022-08-27T03:34:37.776Z,81.80
2022-08-27T03:37:05.292Z,81.90
2022-08-27T03:39:39.868Z,81.90
2022-08-27T03:42:07.722Z,81.80
2022-08-27T03:44:42.780Z,81.50
2022-08-27T03:47:09.893Z,81.60
2022-08-27T03:49:44.616Z,81.60
2022-08-27T03:52:18.503Z,81.60
2022-08-27T03:54:52.436Z,81.80
2022-08-27T03:57:26.477Z,81.80
2022-08-27T03:59:54.423Z,81.80
2022-08-27T04:02:28.711Z,81.80
2022-08-27T04:05:04.466Z,81.90
2022-08-27T04:07:45.543Z,81.90
2022-08-27T04:10:13.161Z,81.80
2022-08-27T04:12:47.423Z,81.80
2022-08-27T04:15:15.798Z,81.70
2022-08-27T04:17:50.861Z,81.70
2022-08-27T04:20:34.494Z,81.60
2022-08-27T04:23:08.939Z,81.60
2022-08-27T04:25:40.406Z,81.60
2022-08-27T04:28:14.328Z,81.70
2022-08-27T04:30:43.858Z,81.60
2022-08-27T04:33:18.881Z,81.50
2022-08-27T04:35:46.036Z,81.60
2022-08-27T04:38:19.487Z,81.60
2022-08-27T04:41:05.179Z,81.40
2022-08-27T04:43:38.970Z,81.30
2022-08-27T04:46:06.823Z,81.40
2022-08-27T04:48:40.546Z,81.50
2022-08-27T04:51:18.548Z,81.50
2022-08-27T04:53:52.756Z,81.50
2022-08-27T04:56:24.263Z,81.50
2022-08-27T04:58:58.573Z,81.40
2022-08-27T05:01:27.192Z,81.40
2022-08-27T05:04:01.378Z,81.30
2022-08-27T05:06:48.512Z,81.30
2022-08-27T05:09:24.653Z,81.20
2022-08-27T05:12:02.812Z,81.30
2022-08-27T05:14:33.121Z,81.10
2022-08-27T05:17:07.555Z,81.20
2022-08-27T05:19:41.403Z,81.30
2022-08-27T05:22:15.653Z,81.30
2022-08-27T05:24:45.987Z,81.10
2022-08-27T05:27:40.433Z,81.20
2022-08-27T05:30:14.857Z,81.10
2022-08-27T05:32:48.496Z,81.00
2022-08-27T05:35:15.910Z,81.10
2022-08-27T05:37:49.549Z,81.00
2022-08-27T05:40:17.156Z,81.00
2022-08-27T05:42:46.571Z,81.00
2022-08-27T05:45:24.531Z,81.00
2022-08-27T05:47:51.762Z,81.10
2022-08-27T05:50:25.560Z,81.20
2022-08-27T05:52:53.258Z,81.20
2022-08-27T05:55:27.543Z,81.30
2022-08-27T05:58:01.585Z,81.30
2022-08-27T06:00:47.402Z,81.10
2022-08-27T06:03:21.305Z,81.10
2022-08-27T06:05:55.623Z,81.10
2022-08-27T06:08:23.591Z,81.10
2022-08-27T06:10:51.847Z,81.10
2022-08-27T06:13:31.385Z,81.00
2022-08-27T06:16:09.508Z,80.90
2022-08-27T06:18:38.600Z,80.90
2022-08-27T06:21:05.810Z,80.90
2022-08-27T06:23:49.440Z,80.70
2022-08-27T06:26:27.267Z,80.70
2022-08-27T06:29:09.342Z,80.80
2022-08-27T06:31:36.636Z,80.70
2022-08-27T06:34:11.446Z,80.80
2022-08-27T06:36:40.075Z,80.70
2022-08-27T06:39:16.975Z,80.60
2022-08-27T06:41:44.565Z,80.60
2022-08-27T06:44:18.533Z,80.50
2022-08-27T06:46:45.818Z,80.40
2022-08-27T06:49:19.467Z,80.40
2022-08-27T06:51:55.056Z,80.40
2022-08-27T06:54:28.599Z,80.50
2022-08-27T06:56:59.299Z,80.50
2022-08-27T06:59:33.460Z,80.40
2022-08-27T07:02:02.497Z,80.40
2022-08-27T07:04:36.410Z,80.40
2022-08-27T07:07:30.151Z,80.30
2022-08-27T07:10:08.807Z,80.20
2022-08-27T07:12:42.475Z,80.20
2022-08-27T07:15:10.893Z,80.20
2022-08-27T07:17:44.436Z,80.10
2022-08-27T07:20:12.524Z,80.10
2022-08-27T07:22:47.663Z,80.10
2022-08-27T07:25:21.835Z,80.00
2022-08-27T07:27:55.757Z,79.90
2022-08-27T07:30:22.926Z,79.90
2022-08-27T07:32:56.443Z,80.00
2022-08-27T07:35:30.677Z,79.90
2022-08-27T07:38:05.553Z,79.90
2022-08-27T07:40:39.919Z,79.90
2022-08-27T07:43:33.449Z,79.90
2022-08-27T07:46:01.649Z,79.80
2022-08-27T07:48:39.594Z,79.80
2022-08-27T07:51:19.511Z,79.80
2022-08-27T07:53:47.485Z,79.80
2022-08-27T07:56:21.595Z,79.80
2022-08-27T07:58:48.775Z,79.70
2022-08-27T08:01:22.541Z,79.60
2022-08-27T08:03:50.905Z,79.60
2022-08-27T08:06:24.572Z,79.50
2022-08-27T08:08:59.119Z,79.60
2022-08-27T08:11:33.412Z,79.30
2022-08-27T08:14:04.561Z,79.20
2022-08-27T08:16:41.467Z,79.10
2022-08-27T08:19:10.012Z,78.90
2022-08-27T08:21:45.587Z,78.50
2022-08-27T08:24:12.680Z,78.50
2022-08-27T08:26:42.214Z,78.50
2022-08-27T08:29:18.256Z,78.50
2022-08-27T08:31:49.813Z,78.30
2022-08-27T08:34:24.530Z,78.10
2022-08-27T08:36:55.027Z,78.00
2022-08-27T08:39:29.448Z,77.90
2022-08-27T08:41:58.845Z,77.70
2022-08-27T08:44:48.578Z,77.40
2022-08-27T08:47:25.475Z,77.10
2022-08-27T08:50:19.823Z,77.00
2022-08-27T08:52:57.251Z,77.10
2022-08-27T08:55:38.396Z,77.30
2022-08-27T08:58:09.311Z,77.10
2022-08-27T09:00:44.726Z,77.10
2022-08-27T09:03:13.327Z,76.90
2022-08-27T09:05:49.530Z,76.60
2022-08-27T09:08:41.656Z,76.50
2022-08-27T09:11:35.466Z,76.40
2022-08-27T09:14:09.280Z,76.30
2022-08-27T09:16:45.521Z,76.10
2022-08-27T09:19:20.779Z,75.70
2022-08-27T09:21:57.586Z,75.20
2022-08-27T09:24:49.757Z,74.80
2022-08-27T09:27:16.886Z,74.50
2022-08-27T09:30:02.327Z,73.80
2022-08-27T09:32:33.246Z,73.50
2022-08-27T09:35:08.575Z,73.70
2022-08-27T09:37:43.932Z,73.60
2022-08-27T09:40:38.918Z,73.50
2022-08-27T09:43:08.448Z,73.40
2022-08-27T09:45:42.583Z,73.30
2022-08-27T09:48:27.589Z,73.10
2022-08-27T09:50:56.688Z,73.00
2022-08-27T09:53:50.559Z,72.30
2022-08-27T09:56:33.383Z,71.90
2022-08-27T09:59:09.581Z,71.60
2022-08-27T10:01:49.398Z,71.40
2022-08-27T10:04:30.413Z,71.20
2022-08-27T10:07:38.673Z,71.00
2022-08-27T10:10:18.026Z,70.90
2022-08-27T10:12:51.468Z,71.40
2022-08-27T10:15:18.948Z,71.80
2022-08-27T10:18:25.915Z,71.60
2022-08-27T10:21:05.362Z,71.30
2022-08-27T10:23:54.755Z,70.40
2022-08-27T10:26:28.754Z,70.00
2022-08-27T10:29:15.685Z,69.80
2022-08-27T10:32:03.678Z,69.50
2022-08-27T10:34:51.883Z,69.10
2022-08-27T10:37:44.508Z,69.30
2022-08-27T10:40:30.559Z,69.10
2022-08-27T10:43:15.583Z,68.30
2022-08-27T10:45:59.690Z,68.40
2022-08-27T10:48:37.681Z,68.50
2022-08-27T10:51:10.354Z,68.30
2022-08-27T10:53:55.708Z,67.50
2022-08-27T10:56:42.079Z,67.40
2022-08-27T10:59:21.528Z,66.30
2022-08-27T11:01:53.294Z,66.00
2022-08-27T11:04:35.493Z,65.90
2022-08-27T11:07:25.793Z,65.80
2022-08-27T11:10:07.858Z,65.40
2022-08-27T11:12:37.830Z,64.20
2022-08-27T11:15:28.719Z,63.50
2022-08-27T11:18:12.832Z,63.50
2022-08-27T11:21:03.080Z,63.10
2022-08-27T11:23:42.799Z,62.70
2022-08-27T11:26:16.987Z,61.80
2022-08-27T11:29:05.834Z,62.20
2022-08-27T11:31:37.485Z,62.00
2022-08-27T11:34:18.823Z,61.70
2022-08-27T11:37:05.462Z,61.30
2022-08-27T11:39:51.722Z,60.50
2022-08-27T11:42:19.372Z,59.60
2022-08-27T11:44:56.649Z,59.20
2022-08-27T11:47:25.192Z,58.90
2022-08-27T11:50:01.560Z,59.00
2022-08-27T11:52:42.733Z,59.00
2022-08-27T11:55:22.794Z,59.40
2022-08-27T11:57:52.186Z,59.50
2022-08-27T12:00:25.642Z,59.90
2022-08-27T12:03:04.986Z,60.30
2022-08-27T12:05:47.237Z,61.00
2022-08-27T12:08:30.817Z,61.30
2022-08-27T12:11:12.774Z,61.40
2022-08-27T12:13:40.563Z,61.80
2022-08-27T12:16:22.825Z,62.00
2022-08-27T12:18:56.658Z,62.00
2022-08-27T12:21:42.575Z,61.70
2022-08-27T12:24:31.615Z,61.00
2022-08-27T12:27:00.627Z,60.30
2022-08-27T12:29:48.909Z,60.00
2022-08-27T12:32:19.569Z,59.10
2022-08-27T12:35:15.587Z,58.30
2022-08-27T12:37:49.070Z,58.00
2022-08-27T12:40:32.068Z,58.00
2022-08-27T12:43:13.764Z,58.20
2022-08-27T12:45:56.758Z,57.90
2022-08-27T12:48:25.997Z,57.50
2022-08-27T12:51:01.832Z,57.40
2022-08-27T12:53:41.138Z,57.20
2022-08-27T12:56:36.868Z,57.40
2022-08-27T12:59:17.483Z,57.60
2022-08-27T13:02:04.534Z,58.10
2022-08-27T13:04:40.678Z,58.10
2022-08-27T13:07:22.669Z,57.60
2022-08-27T13:09:57.455Z,57.30
2022-08-27T13:12:32.732Z,57.60
2022-08-27T13:15:16.217Z,57.60
2022-08-27T13:17:45.233Z,57.30
2022-08-27T13:20:24.482Z,56.90
2022-08-27T13:22:52.669Z,56.50
2022-08-27T13:25:27.711Z,56.20
2022-08-27T13:27:56.670Z,55.90
2022-08-27T13:30:35.900Z,55.30
2022-08-27T13:33:05.124Z,54.90
2022-08-27T13:35:39.912Z,54.60
2022-08-27T13:38:07.548Z,54.20
2022-08-27T13:40:45.541Z,53.90
2022-08-27T13:43:20.923Z,53.90
2022-08-27T13:45:49.448Z,54.20
2022-08-27T13:48:25.680Z,54.30
2022-08-27T13:50:54.352Z,54.20
2022-08-27T13:53:51.784Z,53.70
2022-08-27T13:56:34.799Z,53.60
2022-08-27T13:59:30.646Z,53.80
2022-08-27T14:02:10.140Z,53.70
2022-08-27T14:05:13.680Z,53.70
2022-08-27T14:08:01.657Z,53.50
2022-08-27T14:10:43.777Z,53.20
2022-08-27T14:13:19.612Z,53.10
2022-08-27T14:15:58.639Z,53.10
2022-08-27T14:18:58.358Z,52.80
2022-08-27T14:21:29.794Z,52.70
2022-08-27T14:23:57.231Z,52.90
2022-08-27T14:26:33.614Z,53.30
2022-08-27T14:29:01.186Z,53.50
2022-08-27T14:31:36.679Z,53.70
2022-08-27T14:34:11.691Z,54.10
2022-08-27T14:36:40.192Z,54.50
2022-08-27T14:39:16.930Z,54.70
2022-08-27T14:41:53.962Z,54.90
2022-08-27T14:44:22.500Z,55.00
2022-08-27T14:46:56.811Z,55.50
2022-08-27T14:49:38.127Z,55.50
2022-08-27T14:52:06.459Z,55.40
2022-08-27T14:54:41.203Z,55.40
2022-08-27T14:57:09.122Z,55.40
2022-08-27T14:59:43.845Z,55.40
2022-08-27T15:02:17.563Z,55.70
2022-08-27T15:04:51.867Z,55.70
2022-08-27T15:07:45.679Z,55.90
2022-08-27T15:10:22.490Z,55.80
2022-08-27T15:12:51.032Z,55.60
2022-08-27T15:15:25.864Z,55.70
2022-08-27T15:17:53.192Z,55.80
2022-08-27T15:20:27.793Z,55.90
2022-08-27T15:22:56.443Z,55.90
2022-08-27T15:25:31.187Z,55.90
2022-08-27T15:27:59.143Z,55.90
2022-08-27T15:30:34.925Z,56.00
2022-08-27T15:33:04.684Z,56.20
2022-08-27T15:35:41.463Z,56.10
2022-08-27T15:38:19.760Z,56.30
2022-08-27T15:40:53.649Z,56.30
2022-08-27T15:43:27.610Z,56.70
2022-08-27T15:46:02.937Z,57.00
2022-08-27T15:48:30.588Z,57.10
2022-08-27T15:51:05.680Z,57.20
2022-08-27T15:53:39.818Z,57.20
2022-08-27T15:56:14.914Z,57.20
2022-08-27T15:58:48.858Z,57.30
2022-08-27T16:01:19.141Z,57.40
2022-08-27T16:03:53.811Z,57.60
2022-08-27T16:06:22.015Z,57.70
2022-08-27T16:09:02.793Z,58.00
2022-08-27T16:11:31.352Z,58.20
2022-08-27T16:14:06.268Z,58.50
2022-08-27T16:16:34.224Z,58.60
2022-08-27T16:19:08.643Z,58.70
2022-08-27T16:21:37.190Z,58.60
2022-08-27T16:24:12.719Z,58.70
2022-08-27T16:26:40.108Z,58.90
2022-08-27T16:29:14.868Z,59.00
2022-08-27T16:31:49.879Z,59.10
2022-08-27T16:34:25.649Z,59.20
2022-08-27T16:36:59.758Z,59.50
2022-08-27T16:39:33.082Z,59.50
2022-08-27T16:42:08.928Z,59.60
2022-08-27T16:44:36.218Z,59.70
2022-08-27T16:47:10.204Z,59.70
2022-08-27T16:50:03.158Z,59.90
2022-08-27T16:52:30.773Z,60.00
2022-08-27T16:55:09.279Z,60.20
2022-08-27T16:57:37.198Z,60.30
2022-08-27T17:00:16.709Z,60.40
2022-08-27T17:02:44.323Z,60.50
2022-08-27T17:05:35.037Z,60.60
2022-08-27T17:08:09.604Z,60.70
2022-08-27T17:10:47.779Z,60.80
2022-08-27T17:13:16.654Z,60.90
2022-08-27T17:15:53.009Z,61.00
2022-08-27T17:18:24.669Z,61.20
2022-08-27T17:20:59.033Z,61.20
2022-08-27T17:23:35.120Z,61.40
2022-08-27T17:26:10.033Z,61.50
2022-08-27T17:28:40.949Z,61.70
2022-08-27T17:31:09.706Z,61.80
2022-08-27T17:33:54.710Z,62.10
2022-08-27T17:36:22.659Z,62.10
2022-08-27T17:39:00.679Z,62.20
2022-08-27T17:41:46.727Z,62.40
2022-08-27T17:44:18.091Z,62.50
2022-08-27T17:46:53.192Z,62.60
2022-08-27T17:49:20.283Z,62.70
2022-08-27T17:51:48.584Z,62.90
2022-08-27T17:54:30.826Z,63.00
2022-08-27T17:57:05.715Z,63.10
2022-08-27T17:59:39.661Z,63.30
2022-08-27T18:02:06.837Z,63.50
2022-08-27T18:04:41.263Z,63.70
2022-08-27T18:07:28.682Z,63.90
2022-08-27T18:09:55.995Z,64.10
2022-08-27T18:12:24.478Z,64.30
2022-08-27T18:15:18.707Z,64.50
2022-08-27T18:17:48.338Z,64.60
2022-08-27T18:20:27.633Z,64.80
2022-08-27T18:22:55.510Z,64.90
2022-08-27T18:25:36.151Z,65.10
2022-08-27T18:28:08.232Z,65.20
2022-08-27T18:30:41.961Z,65.50
2022-08-27T18:33:09.538Z,65.70
2022-08-27T18:35:37.394Z,66.00
2022-08-27T18:38:12.210Z,66.30
2022-08-27T18:40:51.866Z,66.50
2022-08-27T18:43:20.815Z,66.70
2022-08-27T18:45:54.812Z,66.80
2022-08-27T18:48:22.844Z,66.90
2022-08-27T18:51:00.795Z,67.00
2022-08-27T18:53:36.013Z,67.10
2022-08-27T18:56:04.996Z,67.10
2022-08-27T18:58:38.697Z,67.20
2022-08-27T19:01:08.321Z,67.20
2022-08-27T19:03:46.768Z,67.30
2022-08-27T19:06:16.868Z,67.40
2022-08-27T19:08:50.870Z,67.50
2022-08-27T19:11:31.996Z,67.60
2022-08-27T19:13:59.436Z,67.90
2022-08-27T19:16:44.711Z,68.10
2022-08-27T19:19:13.395Z,68.20
2022-08-27T19:21:51.517Z,68.40
2022-08-27T19:24:20.075Z,68.50
2022-08-27T19:26:57.218Z,68.70
2022-08-27T19:29:24.438Z,68.90
2022-08-27T19:31:57.809Z,69.20
2022-08-27T19:34:32.033Z,69.40
2022-08-27T19:37:01.075Z,69.50
2022-08-27T19:39:34.583Z,69.60
2022-08-27T19:42:01.906Z,69.40
2022-08-27T19:44:35.718Z,69.30
2022-08-27T19:47:02.889Z,69.20
2022-08-27T19:49:45.959Z,68.80
2022-08-27T19:52:13.404Z,67.90
2022-08-27T19:54:56.962Z,67.00
2022-08-27T19:57:34.714Z,66.80
2022-08-27T20:00:08.875Z,66.90
2022-08-27T20:02:42.563Z,67.30
2022-08-27T20:05:18.723Z,67.70
2022-08-27T20:07:54.733Z,68.20
2022-08-27T20:10:31.663Z,69.10
2022-08-27T20:13:10.734Z,69.70
2022-08-27T20:15:38.563Z,70.40
2022-08-27T20:18:14.725Z,71.00
2022-08-27T20:20:42.985Z,71.70
2022-08-27T20:23:17.766Z,72.20
2022-08-27T20:25:55.569Z,72.70
2022-08-27T20:28:41.393Z,73.00
2022-08-27T20:31:15.841Z,73.20
2022-08-27T20:33:43.751Z,73.40
2022-08-27T20:36:18.719Z,73.50
2022-08-27T20:38:46.088Z,73.70
2022-08-27T20:41:19.855Z,74.00
2022-08-27T20:43:54.613Z,74.30
2022-08-27T20:46:26.033Z,74.60
2022-08-27T20:49:00.704Z,75.10
2022-08-27T20:51:27.813Z,75.60
2022-08-27T20:53:55.432Z,75.80
2022-08-27T20:56:28.638Z,76.00
2022-08-27T20:59:14.294Z,76.10
2022-08-27T21:01:47.715Z,76.10
2022-08-27T21:04:14.846Z,76.30
2022-08-27T21:06:49.083Z,76.80
2022-08-27T21:09:23.765Z,77.00
2022-08-27T21:11:57.725Z,77.10
2022-08-27T21:14:24.759Z,76.90
2022-08-27T21:17:01.648Z,76.70
2022-08-27T21:19:28.728Z,76.60
2022-08-27T21:22:06.210Z,76.70
2022-08-27T21:24:34.458Z,76.90
2022-08-27T21:27:07.698Z,77.00
2022-08-27T21:29:35.096Z,76.90
2022-08-27T21:32:08.688Z,77.00
2022-08-27T21:34:36.084Z,77.40
2022-08-27T21:37:04.522Z,77.60
2022-08-27T21:39:39.863Z,77.80
2022-08-27T21:42:13.608Z,77.80
2022-08-27T21:44:41.110Z,77.60
2022-08-27T21:47:08.729Z,77.50
2022-08-27T21:49:42.855Z,77.70
2022-08-27T21:52:10.023Z,77.80
2022-08-27T21:54:38.914Z,77.90
2022-08-27T21:57:14.289Z,78.00
2022-08-27T21:59:55.789Z,78.00
2022-08-27T22:02:39.234Z,78.10
2022-08-27T22:05:13.679Z,78.10
2022-08-27T22:07:53.663Z,78.10
2022-08-27T22:10:20.954Z,78.10
2022-08-27T22:12:55.659Z,78.10
2022-08-27T22:15:28.779Z,78.20
2022-08-27T22:18:02.580Z,78.30
2022-08-27T22:20:30.503Z,78.30
2022-08-27T22:22:59.264Z,78.40
2022-08-27T22:25:33.788Z,78.60
2022-08-27T22:28:07.989Z,78.70
2022-08-27T22:30:42.052Z,78.70
2022-08-27T22:33:15.708Z,78.90
2022-08-27T22:35:43.001Z,78.90
2022-08-27T22:38:16.657Z,78.80
2022-08-27T22:40:44.367Z,78.80
2022-08-27T22:43:18.788Z,78.80
2022-08-27T22:45:45.878Z,78.90
2022-08-27T22:48:19.722Z,79.00
2022-08-27T22:50:53.979Z,79.20
2022-08-27T22:53:27.783Z,79.20
2022-08-27T22:56:03.118Z,79.10
2022-08-27T22:58:32.776Z,79.00
2022-08-27T23:01:06.695Z,79.20
2022-08-27T23:03:41.429Z,79.40
2022-08-27T23:06:09.187Z,79.40
2022-08-27T23:08:43.124Z,79.40
2022-08-27T23:11:25.045Z,79.50
2022-08-27T23:13:52.658Z,79.50
2022-08-27T23:16:26.842Z,79.40
2022-08-27T23:19:00.834Z,79.40
2022-08-27T23:21:29.185Z,79.30
2022-08-27T23:24:02.876Z,79.30
2022-08-27T23:26:48.595Z,79.40
2022-08-27T23:29:23.406Z,79.40
2022-08-27T23:31:51.394Z,79.30
2022-08-27T23:34:26.804Z,79.30
2022-08-27T23:36:54.024Z,79.40
2022-08-27T23:39:27.885Z,79.20
2022-08-27T23:41:55.758Z,79.00
2022-08-27T23:44:29.896Z,78.90
2022-08-27T23:47:00.449Z,78.90
2022-08-27T23:49:34.811Z,78.90
2022-08-27T23:52:02.159Z,79.00
2022-08-27T23:54:35.784Z,79.10
2022-08-27T23:57:03.203Z,78.90
2022-08-27T23:59:37.803Z,78.90
